Time;durP1;ratioP1;P1;durP2;ratioP2;P2;SDS_P1;SDS_P2;PMS_P1;PMS_P2;Temp;Humidity;BMP_temperature;BMP_pressure;BME280_temperature;BME280_humidity;BME280_pressure;Samples;Min_cycle;Max_cycle;Signal;HPM_P1;HPM_P2
2022/02/15 00:00:25;;;;;;;;;;;;;;;18.30;57.54;101535.81;5092096;28;1620;-35
2022/02/15 00:02:53;;;;;;;;;;;;;;;18.35;57.71;101532.84;5093620;28;1667;-35
2022/02/15 00:05:19;;;;;;;;;;;;;;;18.32;57.39;101523.19;5104423;28;1902;-35
2022/02/15 00:07:46;;;;;;;;;;;;;;;18.34;57.17;101533.78;5096344;28;1711;-35
2022/02/15 00:10:12;;;;;;;;;;;;;;;18.27;57.48;101525.34;5100853;28;1909;-36
2022/02/15 00:12:39;;;;;;;;;;;;;;;18.23;57.54;101540.78;5092724;28;1893;-35
2022/02/15 00:15:07;;;;;;;;;;;;;;;18.20;57.94;101545.50;5095688;28;1751;-36
2022/02/15 00:17:34;;;;;;;;;;;;;;;18.17;57.88;101535.03;5100499;28;2244;-35
2022/02/15 00:20:02;;;;;;;;;;;;;;;18.26;57.66;101535.22;5103204;28;1988;-35
2022/02/15 00:22:28;;;;;;;;;;;;;;;18.28;57.93;101530.59;5112025;28;2017;-36
2022/02/15 00:24:54;;;;;;;;;;;;;;;18.31;57.63;101528.69;5104740;28;1901;-35
2022/02/15 00:27:21;;;;;;;;;;;;;;;18.27;57.54;101528.88;5086293;28;1689;-36
2022/02/15 00:29:47;;;;;;;;;;;;;;;18.24;57.46;101522.88;5104709;28;1738;-35
2022/02/15 00:32:14;;;;;;;;;;;;;;;18.21;58.07;101540.03;5096011;28;1709;-35
2022/02/15 00:34:40;;;;;;;;;;;;;;;18.12;57.82;101531.81;5103435;28;1906;-35
2022/02/15 00:37:08;;;;;;;;;;;;;;;18.07;57.95;101529.47;5101694;28;1833;-35
2022/02/15 00:39:35;;;;;;;;;;;;;;;18.10;57.91;101529.25;5099759;28;2112;-35
2022/02/15 00:42:01;;;;;;;;;;;;;;;18.14;57.98;101514.66;5100456;28;1629;-35
2022/02/15 00:44:27;;;;;;;;;;;;;;;18.12;57.79;101530.00;5087751;28;1969;-35
2022/02/15 00:46:54;;;;;;;;;;;;;;;18.17;57.94;101524.31;5088658;28;1832;-35
2022/02/15 00:49:21;;;;;;;;;;;;;;;18.16;57.78;101527.94;5104932;28;1800;-35
2022/02/15 00:51:48;;;;;;;;;;;;;;;18.14;58.00;101520.03;5100705;28;1735;-35
2022/02/15 00:54:15;;;;;;;;;;;;;;;18.12;57.82;101518.44;5104659;28;1755;-35
2022/02/15 00:56:42;;;;;;;;;;;;;;;18.08;58.21;101516.00;5103714;28;1798;-35
2022/02/15 00:59:09;;;;;;;;;;;;;;;18.02;58.15;101527.13;5095955;28;1778;-35
2022/02/15 01:01:36;;;;;;;;;;;;;;;17.99;58.58;101527.34;5099578;28;2073;-35
2022/02/15 01:04:03;;;;;;;;;;;;;;;17.98;58.34;101522.09;5103237;28;1909;-35
2022/02/15 01:06:37;;;;;;;;;;;;;;;17.99;58.35;101524.69;5096401;28;1673;-35
2022/02/15 01:09:04;;;;;;;;;;;;;;;17.98;58.22;101524.78;5103275;28;1759;-35
2022/02/15 01:11:32;;;;;;;;;;;;;;;18.02;58.29;101528.94;5091670;28;1564;-36
2022/02/15 01:13:58;;;;;;;;;;;;;;;18.06;58.48;101514.38;5092419;28;1793;-36
2022/02/15 01:16:25;;;;;;;;;;;;;;;17.97;58.27;101507.88;5092467;28;1889;-35
2022/02/15 01:18:51;;;;;;;;;;;;;;;17.91;58.53;101502.97;5104083;28;1650;-35
2022/02/15 01:21:24;;;;;;;;;;;;;;;17.91;58.47;101512.84;5097658;28;1756;-35
2022/02/15 01:23:50;;;;;;;;;;;;;;;17.91;58.52;101502.97;5094217;28;1905;-35
2022/02/15 01:26:17;;;;;;;;;;;;;;;17.93;58.53;101510.91;5098696;28;1898;-36
2022/02/15 01:28:45;;;;;;;;;;;;;;;17.99;58.08;101489.88;5095198;28;1577;-35
2022/02/15 01:31:11;;;;;;;;;;;;;;;18.13;57.71;101496.91;5101978;28;1737;-35
2022/02/15 01:33:38;;;;;;;;;;;;;;;18.04;57.89;101490.41;5103255;28;1852;-35
2022/02/15 01:36:04;;;;;;;;;;;;;;;18.00;58.26;101496.09;5090776;28;1802;-36
2022/02/15 01:38:31;;;;;;;;;;;;;;;18.01;58.05;101498.66;5098569;28;1734;-35
2022/02/15 01:40:57;;;;;;;;;;;;;;;18.01;58.01;101500.50;5103893;28;1640;-35
2022/02/15 01:43:24;;;;;;;;;;;;;;;18.04;57.81;101494.91;5102725;28;1889;-35
2022/02/15 01:45:52;;;;;;;;;;;;;;;18.07;57.68;101497.38;5087689;28;1951;-35
2022/02/15 01:48:18;;;;;;;;;;;;;;;18.07;57.56;101495.53;5106179;28;1724;-35
2022/02/15 01:50:45;;;;;;;;;;;;;;;18.07;57.69;101500.03;5102075;28;1613;-35
2022/02/15 01:53:11;;;;;;;;;;;;;;;18.06;57.73;101495.66;5099065;28;1723;-35
2022/02/15 01:55:38;;;;;;;;;;;;;;;18.03;57.70;101495.88;5102918;28;1089;-35
2022/02/15 01:58:05;;;;;;;;;;;;;;;18.01;57.12;101496.00;5101605;28;1795;-35
2022/02/15 02:00:32;;;;;;;;;;;;;;;18.08;57.48;101494.59;5108838;28;1931;-35
2022/02/15 02:02:59;;;;;;;;;;;;;;;18.15;57.68;101489.63;5094704;28;1771;-36
2022/02/15 02:08:10;;;;;;;;;;;;;;;18.19;57.18;101496.47;5102887;28;1752;-35
2022/02/15 02:10:37;;;;;;;;;;;;;;;18.16;57.69;101495.81;5097186;28;1736;-35
2022/02/15 02:13:03;;;;;;;;;;;;;;;18.10;57.47;101475.72;5098414;28;1779;-35
2022/02/15 02:15:30;;;;;;;;;;;;;;;18.04;57.69;101477.00;5098807;28;1931;-35
2022/02/15 02:17:56;;;;;;;;;;;;;;;17.99;57.80;101481.88;5103272;28;1403;-36
2022/02/15 02:20:25;;;;;;;;;;;;;;;18.06;57.67;101463.53;5095031;28;1770;-35
2022/02/15 02:22:53;;;;;;;;;;;;;;;18.07;57.71;101467.94;5082040;28;1956;-35
2022/02/15 02:25:20;;;;;;;;;;;;;;;18.03;57.26;101463.75;5099051;28;1989;-35
2022/02/15 02:27:47;;;;;;;;;;;;;;;17.98;57.81;101461.41;5097279;28;1934;-35
2022/02/15 02:30:14;;;;;;;;;;;;;;;17.97;57.68;101465.06;5095087;28;2303;-35
2022/02/15 02:32:40;;;;;;;;;;;;;;;17.97;57.69;101469.56;5104905;28;1050;-36
2022/02/15 02:35:07;;;;;;;;;;;;;;;18.00;57.62;101467.50;5097694;28;1715;-35
2022/02/15 02:37:34;;;;;;;;;;;;;;;18.00;57.38;101470.19;5105474;28;1594;-35
2022/02/15 02:40:05;;;;;;;;;;;;;;;18.04;57.59;101450.25;5097313;28;1957;-35
2022/02/15 02:42:32;;;;;;;;;;;;;;;18.06;57.37;101460.84;5095576;28;1762;-35
2022/02/15 02:45:01;;;;;;;;;;;;;;;18.05;57.38;101446.63;5100156;28;1906;-35
2022/02/15 02:47:27;;;;;;;;;;;;;;;18.05;57.44;101445.78;5108739;28;1108;-35
2022/02/15 02:49:54;;;;;;;;;;;;;;;18.02;57.54;101454.00;5098112;28;1924;-35
2022/02/15 02:52:21;;;;;;;;;;;;;;;18.03;57.43;101461.94;5107142;28;1573;-35
2022/02/15 02:54:47;;;;;;;;;;;;;;;17.99;57.44;101443.56;5103447;28;1821;-36
2022/02/15 02:57:15;;;;;;;;;;;;;;;17.97;57.63;101432.09;5102210;28;1681;-35
2022/02/15 02:59:43;;;;;;;;;;;;;;;17.99;57.78;101440.88;5108427;28;1948;-35
2022/02/15 03:02:10;;;;;;;;;;;;;;;17.97;57.65;101450.84;5198222;22;3552;-33
2022/02/15 03:04:38;;;;;;;;;;;;;;;17.89;57.81;101460.25;5084146;28;1981;-33
2022/02/15 03:07:06;;;;;;;;;;;;;;;17.87;57.65;101475.56;5093124;28;1474;-33
2022/02/15 03:09:33;;;;;;;;;;;;;;;17.84;58.14;101486.47;5089575;28;1484;-33
2022/02/15 03:12:00;;;;;;;;;;;;;;;17.86;57.92;101473.00;5088289;28;1091;-33
2022/02/15 03:14:30;;;;;;;;;;;;;;;17.84;58.35;101474.94;5091187;28;1032;-33
2022/02/15 03:17:00;;;;;;;;;;;;;;;17.81;58.26;101476.00;5094415;28;1781;-33
2022/02/15 03:19:33;;;;;;;;;;;;;;;17.85;57.92;101480.19;5089127;28;1757;-33
2022/02/15 03:24:42;;;;;;;;;;;;;;;17.96;57.68;101482.06;5091282;28;1905;-34
2022/02/15 03:27:11;;;;;;;;;;;;;;;17.98;57.44;101490.00;5085779;28;1080;-33
2022/02/15 03:29:41;;;;;;;;;;;;;;;17.95;57.42;101487.56;5093761;28;1606;-33
2022/02/15 03:32:10;;;;;;;;;;;;;;;17.97;57.55;101496.31;5081613;28;1679;-33
2022/02/15 03:34:39;;;;;;;;;;;;;;;17.95;57.56;101500.94;5080635;28;1767;-33
2022/02/15 03:37:06;;;;;;;;;;;;;;;17.94;57.55;101491.19;5083377;28;1592;-33
2022/02/15 03:39:36;;;;;;;;;;;;;;;17.97;57.25;101475.78;5082270;28;1487;-33
2022/02/15 03:44:48;;;;;;;;;;;;;;;18.44;56.36;101478.56;5035159;28;1986;-33
2022/02/15 03:47:15;;;;;;;;;;;;;;;18.77;55.79;101479.69;5065729;28;1865;-33
2022/02/15 03:49:41;;;;;;;;;;;;;;;18.89;55.37;101478.78;5085210;28;1643;-33
2022/02/15 03:52:11;;;;;;;;;;;;;;;19.03;54.34;101475.06;5083896;28;1549;-33
2022/02/15 03:54:41;;;;;;;;;;;;;;;19.06;55.12;101470.31;5082797;28;1768;-32
2022/02/15 03:57:09;;;;;;;;;;;;;;;19.06;54.53;101464.94;5082135;28;1580;-33
2022/02/15 03:59:36;;;;;;;;;;;;;;;19.06;54.59;101464.09;5084373;28;1966;-33
2022/02/15 04:02:16;;;;;;;;;;;;;;;19.00;54.74;101465.44;5084659;28;1411;-33
2022/02/15 04:04:43;;;;;;;;;;;;;;;18.97;54.76;101465.66;5061272;28;2001;-33
2022/02/15 04:07:19;;;;;;;;;;;;;;;18.90;55.45;101458.19;5076292;28;1239;-33
2022/02/15 04:09:46;;;;;;;;;;;;;;;18.86;55.54;101470.97;5076858;28;1623;-33
2022/02/15 04:12:15;;;;;;;;;;;;;;;18.80;55.49;101463.41;5072645;28;1707;-33
2022/02/15 04:14:45;;;;;;;;;;;;;;;18.74;54.96;101466.53;5073185;28;1611;-33
2022/02/15 04:17:21;;;;;;;;;;;;;;;18.65;55.50;101450.19;5079542;28;1926;-33
2022/02/15 04:19:52;;;;;;;;;;;;;;;18.59;55.25;101464.03;5086334;28;1897;-33
2022/02/15 04:22:19;;;;;;;;;;;;;;;18.56;55.20;101450.91;5059193;28;1782;-33
2022/02/15 04:24:46;;;;;;;;;;;;;;;18.51;55.27;101447.69;5080070;28;1802;-33
2022/02/15 04:27:16;;;;;;;;;;;;;;;18.47;55.56;101447.06;5080323;28;1763;-33
2022/02/15 04:29:43;;;;;;;;;;;;;;;18.44;55.34;101449.13;5067276;28;1826;-33
2022/02/15 04:32:11;;;;;;;;;;;;;;;18.42;54.78;101459.09;5082964;28;1743;-33
2022/02/15 04:34:55;;;;;;;;;;;;;;;18.38;55.14;101450.47;5082034;28;1953;-33
2022/02/15 04:37:25;;;;;;;;;;;;;;;18.36;54.65;101465.75;5076341;28;1735;-33
2022/02/15 04:39:55;;;;;;;;;;;;;;;18.28;55.44;101457.44;5075721;28;1635;-33
2022/02/15 04:42:23;;;;;;;;;;;;;;;18.32;55.11;101476.81;5085592;28;1427;-33
2022/02/15 04:44:50;;;;;;;;;;;;;;;18.29;55.70;101476.06;5070377;28;1706;-33
2022/02/15 04:47:19;;;;;;;;;;;;;;;18.24;55.28;101472.91;5079400;28;1910;-33
2022/02/15 04:49:47;;;;;;;;;;;;;;;18.17;55.65;101485.00;5074451;28;1778;-33
2022/02/15 04:52:23;;;;;;;;;;;;;;;18.13;56.03;101483.53;5078188;28;1711;-33
2022/02/15 04:54:50;;;;;;;;;;;;;;;18.12;55.98;101487.16;5084775;28;1423;-33
2022/02/15 04:57:20;;;;;;;;;;;;;;;18.15;56.06;101494.97;5082106;28;1937;-33
2022/02/15 04:59:49;;;;;;;;;;;;;;;18.15;56.17;101500.34;5078156;28;1613;-33
2022/02/15 05:02:17;;;;;;;;;;;;;;;18.11;56.37;101504.22;5077882;28;1477;-32
2022/02/15 05:04:49;;;;;;;;;;;;;;;18.07;56.24;101492.88;5074402;28;1726;-33
2022/02/15 05:07:19;;;;;;;;;;;;;;;18.07;56.41;101508.91;5074622;28;1979;-33
2022/02/15 05:09:50;;;;;;;;;;;;;;;18.15;56.14;101516.41;5081494;28;1891;-33
2022/02/15 05:12:17;;;;;;;;;;;;;;;18.14;56.35;101508.47;5083872;28;1625;-33
2022/02/15 05:14:44;;;;;;;;;;;;;;;18.20;55.77;101524.94;5086530;28;1555;-33
2022/02/15 05:17:11;;;;;;;;;;;;;;;18.18;55.93;101523.34;5087429;28;1970;-33
2022/02/15 05:19:39;;;;;;;;;;;;;;;18.15;55.72;101527.09;5088561;28;1561;-34
2022/02/15 05:22:10;;;;;;;;;;;;;;;18.12;55.92;101543.38;5075229;28;1604;-33
2022/02/15 05:24:42;;;;;;;;;;;;;;;18.09;56.25;101538.25;5081648;28;1695;-32
2022/02/15 05:27:09;;;;;;;;;;;;;;;17.97;56.34;101536.47;5080962;28;1905;-33
2022/02/15 05:29:35;;;;;;;;;;;;;;;17.96;56.45;101556.16;5082245;28;1754;-33
2022/02/15 05:32:04;;;;;;;;;;;;;;;17.95;56.61;101563.34;5083181;28;1874;-33
2022/02/15 05:34:32;;;;;;;;;;;;;;;17.98;56.42;101555.06;5065385;28;1679;-33
2022/02/15 05:37:00;;;;;;;;;;;;;;;18.00;56.75;101555.81;5073610;28;1583;-33
2022/02/15 05:39:29;;;;;;;;;;;;;;;18.02;56.31;101555.72;5078850;28;1471;-33
2022/02/15 05:42:02;;;;;;;;;;;;;;;18.05;56.32;101555.50;5079609;28;1270;-33
2022/02/15 05:44:32;;;;;;;;;;;;;;;18.04;56.34;101567.16;5078426;28;1714;-33
2022/02/15 05:46:58;;;;;;;;;;;;;;;18.01;56.48;101540.63;5074847;28;1913;-33
2022/02/15 05:49:25;;;;;;;;;;;;;;;17.99;56.42;101537.22;5069275;28;1730;-33
2022/02/15 05:51:53;;;;;;;;;;;;;;;18.00;56.47;101542.44;5086664;28;1588;-33
2022/02/15 05:54:21;;;;;;;;;;;;;;;17.99;56.54;101538.06;5086328;28;1922;-33
2022/02/15 05:56:56;;;;;;;;;;;;;;;18.03;58.14;101528.00;5061848;28;1851;-34
2022/02/15 05:59:29;;;;;;;;;;;;;;;18.49;56.68;101516.59;5068461;28;1585;-33
2022/02/15 06:02:00;;;;;;;;;;;;;;;19.30;54.52;101506.03;5076393;28;1700;-34
2022/02/15 06:04:29;;;;;;;;;;;;;;;19.62;54.98;101501.69;5072270;28;1578;-33
2022/02/15 06:06:58;;;;;;;;;;;;;;;19.78;54.20;101496.00;5076566;28;1906;-33
2022/02/15 06:09:26;;;;;;;;;;;;;;;19.98;54.63;101515.03;5076169;28;1386;-33
2022/02/15 06:11:56;;;;;;;;;;;;;;;19.99;54.26;101538.19;5074656;28;1375;-33
2022/02/15 06:14:25;;;;;;;;;;;;;;;19.91;54.03;101560.28;5065545;28;1513;-33
2022/02/15 06:16:55;;;;;;;;;;;;;;;19.91;55.23;101562.13;5074862;28;1786;-33
2022/02/15 06:19:22;;;;;;;;;;;;;;;19.98;55.31;101542.72;5080863;28;1505;-33
2022/02/15 06:21:51;;;;;;;;;;;;;;;19.95;56.19;101536.72;5080767;28;1145;-33
2022/02/15 06:24:23;;;;;;;;;;;;;;;19.88;56.28;101552.47;5078124;28;1926;-33
2022/02/15 06:26:52;;;;;;;;;;;;;;;20.20;55.64;101555.25;5080725;28;1909;-32
2022/02/15 06:29:21;;;;;;;;;;;;;;;20.48;54.92;101544.94;5071349;28;1695;-33
2022/02/15 06:31:47;;;;;;;;;;;;;;;20.40;54.53;101560.84;5074438;28;1852;-33
2022/02/15 06:34:18;;;;;;;;;;;;;;;20.07;55.05;101554.53;5080374;28;2110;-33
2022/02/15 06:36:44;;;;;;;;;;;;;;;19.96;54.75;101554.56;5080276;28;1624;-34
2022/02/15 06:39:11;;;;;;;;;;;;;;;19.89;55.66;101542.59;5071843;28;1777;-34
2022/02/15 06:41:40;;;;;;;;;;;;;;;20.00;54.79;101539.91;5072553;28;1540;-35
2022/02/15 06:44:21;;;;;;;;;;;;;;;19.86;55.72;101528.44;5079972;28;1296;-35
2022/02/15 06:46:48;;;;;;;;;;;;;;;19.86;54.69;101533.81;5080277;28;1993;-34
2022/02/15 06:49:18;;;;;;;;;;;;;;;19.81;55.21;101527.94;5081033;28;1941;-34
2022/02/15 06:51:48;;;;;;;;;;;;;;;19.78;54.81;101536.25;5075456;28;1729;-34
2022/02/15 06:54:16;;;;;;;;;;;;;;;19.77;54.80;101545.25;5078843;28;1644;-34
2022/02/15 06:56:47;;;;;;;;;;;;;;;19.67;56.28;101533.53;5081453;28;1590;-35
2022/02/15 06:59:14;;;;;;;;;;;;;;;19.62;55.47;101541.09;5072238;28;1584;-34
2022/02/15 07:01:43;;;;;;;;;;;;;;;19.54;56.36;101535.50;5075445;28;1579;-34
2022/02/15 07:04:12;;;;;;;;;;;;;;;19.50;55.80;101539.34;5085127;28;1463;-34
2022/02/15 07:06:44;;;;;;;;;;;;;;;19.51;55.69;101538.41;5084870;28;1910;-34
2022/02/15 07:09:13;;;;;;;;;;;;;;;19.50;56.04;101542.03;5081226;28;1651;-34
2022/02/15 07:11:42;;;;;;;;;;;;;;;19.43;55.55;101534.47;5077980;28;1900;-34
2022/02/15 07:14:09;;;;;;;;;;;;;;;19.37;55.92;101540.31;5056654;28;1047;-35
2022/02/15 07:16:38;;;;;;;;;;;;;;;19.26;56.02;101525.06;5072100;28;1580;-34
2022/02/15 07:19:06;;;;;;;;;;;;;;;19.23;56.47;101524.44;5081650;28;1422;-34
2022/02/15 07:21:35;;;;;;;;;;;;;;;19.23;55.89;101535.16;5076509;28;1073;-34
2022/02/15 07:24:07;;;;;;;;;;;;;;;19.28;55.25;101528.50;5090388;28;1383;-34
2022/02/15 07:26:36;;;;;;;;;;;;;;;19.28;55.83;101541.06;5070762;28;1910;-34
2022/02/15 07:29:05;;;;;;;;;;;;;;;19.25;55.84;101528.72;5082487;28;1559;-34
2022/02/15 07:31:31;;;;;;;;;;;;;;;19.27;55.55;101550.06;5078026;28;1462;-34
2022/02/15 07:33:59;;;;;;;;;;;;;;;19.22;55.93;101544.22;5072899;28;1433;-34
2022/02/15 07:36:28;;;;;;;;;;;;;;;19.20;55.83;101541.63;5086349;28;1950;-34
2022/02/15 07:38:57;;;;;;;;;;;;;;;19.19;56.73;101541.75;5086535;28;1395;-34
2022/02/15 07:41:28;;;;;;;;;;;;;;;19.10;56.64;101524.56;5081233;28;1508;-34
2022/02/15 07:43:59;;;;;;;;;;;;;;;19.20;55.73;101519.31;5074441;28;1545;-34
2022/02/15 07:46:26;;;;;;;;;;;;;;;19.16;56.73;101512.47;5071458;28;1949;-34
2022/02/15 07:48:53;;;;;;;;;;;;;;;19.22;55.92;101523.59;5082008;28;1312;-34
2022/02/15 07:51:19;;;;;;;;;;;;;;;19.16;55.92;101534.81;5075857;28;1703;-34
2022/02/15 07:53:46;;;;;;;;;;;;;;;19.28;56.46;101535.69;5076301;28;1425;-34
2022/02/15 07:56:15;;;;;;;;;;;;;;;19.14;56.21;101517.97;5076352;28;1560;-35
2022/02/15 07:58:47;;;;;;;;;;;;;;;19.07;56.20;101514.03;5079049;28;1303;-34
2022/02/15 08:01:14;;;;;;;;;;;;;;;19.10;56.83;101515.63;5071894;28;1489;-35
2022/02/15 08:03:48;;;;;;;;;;;;;;;19.03;56.80;101521.47;5081606;28;1605;-34
2022/02/15 08:06:14;;;;;;;;;;;;;;;19.05;57.11;101522.19;5072927;28;1906;-34
2022/02/15 08:08:41;;;;;;;;;;;;;;;19.07;57.22;101536.34;5080962;28;1482;-34
2022/02/15 08:11:10;;;;;;;;;;;;;;;19.10;56.64;101508.47;5077694;28;1501;-34
2022/02/15 08:13:40;;;;;;;;;;;;;;;19.21;56.49;101527.25;5069150;28;1008;-34
2022/02/15 08:16:10;;;;;;;;;;;;;;;19.27;56.38;101521.41;5091471;28;1956;-34
2022/02/15 08:18:41;;;;;;;;;;;;;;;19.38;56.19;101523.25;5083364;28;1744;-34
2022/02/15 08:21:12;;;;;;;;;;;;;;;19.39;56.38;101516.06;5055783;28;1731;-35
2022/02/15 08:23:41;;;;;;;;;;;;;;;19.47;56.21;101521.69;5069019;28;1869;-35
2022/02/15 08:26:07;;;;;;;;;;;;;;;19.50;55.82;101520.56;5074150;28;1971;-34
2022/02/15 08:28:41;;;;;;;;;;;;;;;19.52;55.74;101527.56;5078391;28;1791;-35
2022/02/15 08:31:13;;;;;;;;;;;;;;;19.60;55.89;101522.44;5079101;28;1944;-34
2022/02/15 08:33:41;;;;;;;;;;;;;;;19.61;56.00;101515.22;5075601;28;1493;-34
2022/02/15 08:36:10;;;;;;;;;;;;;;;19.68;56.56;101513.78;5087882;28;1620;-34
2022/02/15 08:38:39;;;;;;;;;;;;;;;19.73;55.24;101508.91;5073722;28;1960;-34
2022/02/15 08:41:16;;;;;;;;;;;;;;;19.73;56.47;101500.88;5070761;28;1934;-33
2022/02/15 08:43:46;;;;;;;;;;;;;;;19.78;55.52;101509.41;5071014;28;1187;-34
2022/02/15 08:46:16;;;;;;;;;;;;;;;19.77;55.86;101491.59;5070293;28;2005;-34
2022/02/15 08:48:45;;;;;;;;;;;;;;;19.74;56.49;101499.06;5066809;28;1564;-34
2022/02/15 08:51:14;;;;;;;;;;;;;;;19.60;55.95;101484.88;5078698;28;1601;-34
2022/02/15 08:53:41;;;;;;;;;;;;;;;19.62;56.36;101498.16;5078482;28;1471;-34
2022/02/15 08:56:08;;;;;;;;;;;;;;;19.55;57.07;101486.22;5084774;28;1829;-34
2022/02/15 08:58:37;;;;;;;;;;;;;;;19.54;56.16;101484.50;5079038;28;1004;-34
2022/02/15 09:01:04;;;;;;;;;;;;;;;19.51;56.68;101484.75;5074708;28;1498;-34
2022/02/15 09:03:38;;;;;;;;;;;;;;;19.52;56.85;101486.44;5083033;28;1723;-34
2022/02/15 09:06:13;;;;;;;;;;;;;;;19.50;57.40;101493.75;5078677;28;1495;-34
2022/02/15 09:08:42;;;;;;;;;;;;;;;19.52;56.81;101497.16;5090595;28;1842;-34
2022/02/15 09:11:10;;;;;;;;;;;;;;;19.55;57.21;101504.97;5084453;28;1817;-34
2022/02/15 09:13:37;;;;;;;;;;;;;;;19.54;56.54;101490.72;5078624;28;1059;-34
2022/02/15 09:16:05;;;;;;;;;;;;;;;19.56;56.54;101482.56;5080368;28;1841;-34
2022/02/15 09:18:35;;;;;;;;;;;;;;;19.56;56.50;101475.38;5089844;28;1754;-34
2022/02/15 09:21:05;;;;;;;;;;;;;;;19.55;57.40;101472.78;5083945;28;1023;-34
2022/02/15 09:23:32;;;;;;;;;;;;;;;19.59;56.27;101476.94;5082691;28;2008;-34
2022/02/15 09:25:59;;;;;;;;;;;;;;;19.59;56.88;101482.31;5093504;28;1916;-34
2022/02/15 09:28:29;;;;;;;;;;;;;;;19.54;56.55;101476.47;5088540;28;1976;-34
2022/02/15 09:30:55;;;;;;;;;;;;;;;19.48;57.39;101478.66;5077940;28;1722;-34
2022/02/15 09:33:32;;;;;;;;;;;;;;;19.52;56.44;101483.75;5081639;28;1591;-34
2022/02/15 09:36:03;;;;;;;;;;;;;;;19.52;57.10;101475.69;5080311;28;1430;-34
2022/02/15 09:38:29;;;;;;;;;;;;;;;19.53;56.95;101466.69;5081134;28;1552;-33
2022/02/15 09:41:02;;;;;;;;;;;;;;;19.51;56.73;101474.00;5066533;28;1619;-34
2022/02/15 09:43:29;;;;;;;;;;;;;;;19.53;56.93;101469.38;5094122;28;1087;-34
2022/02/15 09:45:56;;;;;;;;;;;;;;;19.54;56.45;101471.09;5085216;28;1722;-34
2022/02/15 09:48:24;;;;;;;;;;;;;;;19.50;56.55;101456.19;5077296;28;1967;-34
2022/02/15 09:50:53;;;;;;;;;;;;;;;19.50;57.30;101459.75;5078100;28;1595;-36
2022/02/15 09:53:24;;;;;;;;;;;;;;;19.55;56.87;101448.66;5087225;28;1733;-34
2022/02/15 09:55:53;;;;;;;;;;;;;;;19.55;57.43;101441.44;5087489;28;1592;-34
2022/02/15 09:58:20;;;;;;;;;;;;;;;19.58;56.45;101459.16;5082929;28;1076;-34
2022/02/15 10:00:48;;;;;;;;;;;;;;;19.54;56.80;101433.53;5080523;28;1798;-34
2022/02/15 10:03:17;;;;;;;;;;;;;;;19.60;56.30;101430.38;5082719;28;1786;-34
2022/02/15 10:05:50;;;;;;;;;;;;;;;19.56;56.84;101428.91;5077731;28;1467;-34
2022/02/15 10:08:25;;;;;;;;;;;;;;;19.48;57.08;101433.03;5088257;28;1972;-34
2022/02/15 10:10:58;;;;;;;;;;;;;;;19.50;57.52;101429.38;5074718;28;1698;-34
2022/02/15 10:13:29;;;;;;;;;;;;;;;19.50;56.73;101418.66;5063917;28;1141;-34
2022/02/15 10:15:56;;;;;;;;;;;;;;;19.47;57.28;101414.38;5089136;28;1796;-34
2022/02/15 10:18:25;;;;;;;;;;;;;;;19.47;56.68;101415.22;5078490;28;1982;-34
2022/02/15 10:20:57;;;;;;;;;;;;;;;19.47;56.75;101398.28;5066384;28;1407;-34
2022/02/15 10:23:25;;;;;;;;;;;;;;;19.56;56.68;101402.09;5081743;28;1834;-34
2022/02/15 10:25:56;;;;;;;;;;;;;;;19.55;56.69;101400.34;5079782;28;1558;-34
2022/02/15 10:28:27;;;;;;;;;;;;;;;19.61;55.00;101389.13;5078062;28;1972;-33
2022/02/15 10:30:58;;;;;;;;;;;;;;;19.78;55.24;101391.34;5084294;28;1613;-33
2022/02/15 10:33:31;;;;;;;;;;;;;;;19.95;55.71;101405.19;5064819;28;1715;-33
2022/02/15 10:36:08;;;;;;;;;;;;;;;19.93;54.78;101393.72;5077690;28;1536;-33
2022/02/15 10:38:38;;;;;;;;;;;;;;;19.89;56.54;101386.91;5080325;28;1764;-34
2022/02/15 10:41:10;;;;;;;;;;;;;;;19.90;55.45;101378.75;5078533;28;1648;-33
2022/02/15 10:43:49;;;;;;;;;;;;;;;19.88;56.51;101393.28;5089319;28;1540;-32
2022/02/15 10:46:19;;;;;;;;;;;;;;;20.06;55.96;101389.06;5081511;28;1762;-34
2022/02/15 10:48:52;;;;;;;;;;;;;;;19.91;56.19;101396.53;5080189;28;1905;-34
2022/02/15 10:51:21;;;;;;;;;;;;;;;19.80;55.23;101392.06;5076066;28;1788;-34
2022/02/15 10:54:03;;;;;;;;;;;;;;;19.77;56.46;101400.34;5070542;28;1738;-34
2022/02/15 10:56:36;;;;;;;;;;;;;;;19.75;56.33;101386.19;5063913;28;1822;-34
2022/02/15 10:59:04;;;;;;;;;;;;;;;20.01;55.36;101367.94;5066273;28;1775;-34
2022/02/15 11:01:33;;;;;;;;;;;;;;;19.90;56.13;101394.00;5065385;28;1826;-34
2022/02/15 11:04:02;;;;;;;;;;;;;;;19.83;55.95;101382.91;5079201;28;1730;-34
2022/02/15 11:06:31;;;;;;;;;;;;;;;19.86;56.05;101366.56;5082933;28;1629;-35
2022/02/15 11:09:08;;;;;;;;;;;;;;;19.82;56.43;101376.69;5079493;28;1918;-35
2022/02/15 11:12:00;;;;;;;;;;;;;;;19.81;55.94;101372.28;5066943;28;1755;-34
2022/02/15 11:14:30;;;;;;;;;;;;;;;19.81;56.43;101353.50;5056583;28;1027;-34
2022/02/15 11:17:10;;;;;;;;;;;;;;;19.84;56.05;101363.16;5080558;28;1773;-34
2022/02/15 11:19:41;;;;;;;;;;;;;;;19.81;56.49;101348.13;5087666;28;1821;-34
2022/02/15 11:22:17;;;;;;;;;;;;;;;19.82;55.86;101349.84;5075224;28;1348;-34
2022/02/15 11:24:44;;;;;;;;;;;;;;;19.78;55.96;101334.97;5080508;28;1612;-35
2022/02/15 11:27:19;;;;;;;;;;;;;;;19.80;55.85;101346.44;5077156;28;1906;-34
2022/02/15 11:29:54;;;;;;;;;;;;;;;19.82;56.75;101355.22;5083812;28;1108;-34
2022/02/15 11:32:27;;;;;;;;;;;;;;;19.80;56.57;101349.13;5079372;28;1362;-34
2022/02/15 11:34:57;;;;;;;;;;;;;;;19.85;55.60;101338.84;5084934;28;1660;-34
2022/02/15 11:37:26;;;;;;;;;;;;;;;19.97;55.62;101344.19;5071913;28;1574;-33
2022/02/15 11:40:04;;;;;;;;;;;;;;;19.92;56.20;101354.47;5086714;28;1644;-33
2022/02/15 11:42:40;;;;;;;;;;;;;;;19.79;56.52;101344.72;5091858;28;1626;-33
2022/02/15 11:45:17;;;;;;;;;;;;;;;19.78;56.26;101339.50;5078792;28;1591;-34
2022/02/15 11:47:46;;;;;;;;;;;;;;;19.74;56.82;101341.56;5082623;28;1906;-34
2022/02/15 11:50:25;;;;;;;;;;;;;;;19.71;56.99;101330.22;5086107;28;1085;-34
2022/02/15 11:53:00;;;;;;;;;;;;;;;19.67;57.53;101326.91;5086065;28;1081;-34
2022/02/15 11:55:31;;;;;;;;;;;;;;;19.73;56.89;101313.03;5078165;28;1146;-34
2022/02/15 11:58:00;;;;;;;;;;;;;;;19.73;56.80;101323.75;5077511;28;1558;-34
2022/02/15 12:00:34;;;;;;;;;;;;;;;19.72;57.46;101330.13;5076267;28;1879;-33
2022/02/15 12:03:04;;;;;;;;;;;;;;;19.70;56.57;101318.63;5081233;28;1667;-33
2022/02/15 12:05:34;;;;;;;;;;;;;;;19.80;56.83;101316.06;5080631;28;1535;-34
2022/02/15 12:08:01;;;;;;;;;;;;;;;19.80;57.31;101324.97;5082174;28;1905;-35
2022/02/15 12:10:34;;;;;;;;;;;;;;;19.76;57.23;101302.06;5076058;28;994;-33
2022/02/15 12:13:05;;;;;;;;;;;;;;;19.77;56.89;101293.00;5085628;28;1810;-34
2022/02/15 12:15:35;;;;;;;;;;;;;;;19.86;56.99;101302.13;5077488;28;1739;-35
2022/02/15 12:18:05;;;;;;;;;;;;;;;19.79;56.74;101299.09;5074400;28;1637;-34
2022/02/15 12:20:36;;;;;;;;;;;;;;;19.75;57.10;101305.69;5080288;28;1311;-33
2022/02/15 12:23:03;;;;;;;;;;;;;;;19.71;57.48;101301.56;5076739;28;1960;-33
2022/02/15 12:25:32;;;;;;;;;;;;;;;19.70;56.88;101291.78;5076083;28;1494;-34
2022/02/15 12:28:03;;;;;;;;;;;;;;;19.67;57.32;101292.03;5079292;28;2506;-34
2022/02/15 12:30:34;;;;;;;;;;;;;;;19.76;57.53;101304.72;5078747;28;1350;-34
2022/02/15 12:33:04;;;;;;;;;;;;;;;19.69;56.53;101287.41;5074919;28;1358;-33
2022/02/15 12:35:32;;;;;;;;;;;;;;;19.65;56.79;101280.56;5076129;28;1624;-33
2022/02/15 12:38:00;;;;;;;;;;;;;;;19.75;56.86;101289.59;5084869;28;1255;-34
2022/02/15 12:40:40;;;;;;;;;;;;;;;19.71;56.71;101277.41;5080920;28;1413;-33
2022/02/15 12:43:10;;;;;;;;;;;;;;;19.79;56.93;101290.19;5082636;28;1079;-34
2022/02/15 12:45:48;;;;;;;;;;;;;;;19.68;57.96;101302.66;5067741;28;1370;-34
2022/02/15 12:48:18;;;;;;;;;;;;;;;19.79;57.80;101296.41;5073285;28;1913;-34
2022/02/15 12:50:57;;;;;;;;;;;;;;;19.77;56.80;101292.16;5078624;28;1586;-33
2022/02/15 12:53:25;;;;;;;;;;;;;;;19.85;57.43;101306.63;5069550;28;1778;-34
2022/02/15 12:55:52;;;;;;;;;;;;;;;19.96;56.58;101276.22;5079338;28;1467;-33
2022/02/15 12:58:30;;;;;;;;;;;;;;;19.95;56.96;101281.72;5078658;28;1588;-33
2022/02/15 13:01:11;;;;;;;;;;;;;;;19.91;57.86;101285.63;5066227;28;1947;-32
2022/02/15 13:03:47;;;;;;;;;;;;;;;19.91;57.99;101285.63;5070724;28;1730;-32
2022/02/15 13:06:35;;;;;;;;;;;;;;;20.01;57.84;101289.25;5074545;28;1767;-34